Time;durP1;ratioP1;P1;durP2;ratioP2;P2;SDS_P1;SDS_P2;PMS_P1;PMS_P2;Temp;Humidity;BMP_temperature;BMP_pressure;BME280_temperature;BME280_humidity;BME280_pressure;Samples;Min_cycle;Max_cycle;Signal;HPM_P1;HPM_P2
2022/04/30 00:00:29;;;;;;;18.25;8.35;;;;;;;;;;5001622;28;20335;-69
2022/04/30 00:02:59;;;;;;;16.42;7.88;;;;;;;;;;5017145;28;22394;-63
2022/04/30 00:05:25;;;;;;;13.45;7.60;;;;;;;;;;4999768;28;20090;-67
2022/04/30 00:07:50;;;;;;;12.05;7.78;;;;;;;;;;5001750;28;20553;-68
2022/04/30 00:10:16;;;;;;;13.15;7.75;;;;;;;;;;5001631;28;20553;-63
2022/04/30 00:12:41;;;;;;;13.98;7.32;;;;;;;;;;5001593;28;20701;-63
2022/04/30 00:15:06;;;;;;;11.63;7.72;;;;;;;;;;5003284;28;20041;-63
2022/04/30 00:17:34;;;;;;;13.63;7.50;;;;;;;;;;5004854;28;20137;-64
2022/04/30 00:20:00;;;;;;;12.57;7.50;;;;;;;;;;5004640;28;20336;-64
2022/04/30 00:22:25;;;;;;;9.90;6.53;;;;;;;;;;5001013;28;20041;-64
2022/04/30 00:24:50;;;;;;;11.27;7.45;;;;;;;;;;4999765;28;20754;-63
2022/04/30 00:27:17;;;;;;;11.63;7.13;;;;;;;;;;5001655;28;20117;-63
2022/04/30 00:29:42;;;;;;;12.10;7.70;;;;;;;;;;5000687;28;20040;-64
2022/04/30 00:32:07;;;;;;;11.82;7.85;;;;;;;;;;5001632;28;20661;-64
2022/04/30 00:34:37;;;;;;;12.68;7.00;;;;;;;;;;5003975;28;20171;-64
2022/04/30 00:37:03;;;;;;;11.43;7.00;;;;;;;;;;5001359;28;20033;-64
2022/04/30 00:39:29;;;;;;;12.38;6.88;;;;;;;;;;5001407;28;20052;-64
2022/04/30 00:41:59;;;;;;;11.43;7.22;;;;;;;;;;5001971;28;20107;-63
2022/04/30 00:44:25;;;;;;;12.07;7.07;;;;;;;;;;5001043;28;20378;-67
2022/04/30 00:46:50;;;;;;;14.10;7.32;;;;;;;;;;5001486;28;20270;-69
2022/04/30 00:49:16;;;;;;;11.13;7.43;;;;;;;;;;5001435;28;20140;-65
2022/04/30 00:51:43;;;;;;;11.85;7.05;;;;;;;;;;5005117;28;20280;-64
2022/04/30 00:54:10;;;;;;;14.55;7.18;;;;;;;;;;5000539;28;20265;-64
2022/04/30 00:56:50;;;;;;;9.05;6.95;;;;;;;;;;5016024;28;20041;-64
2022/04/30 00:59:19;;;;;;;14.80;7.45;;;;;;;;;;4999581;28;20107;-64
2022/04/30 01:01:45;;;;;;;11.80;7.10;;;;;;;;;;5001137;28;20030;-63
2022/04/30 01:04:10;;;;;;;11.13;7.68;;;;;;;;;;4999389;28;20140;-65
2022/04/30 01:06:45;;;;;;;16.42;8.50;;;;;;;;;;5004674;28;20395;-64
2022/04/30 01:09:10;;;;;;;9.63;7.22;;;;;;;;;;5002342;28;20173;-65
2022/04/30 01:11:36;;;;;;;11.63;6.68;;;;;;;;;;5005405;28;20103;-64
2022/04/30 01:14:04;;;;;;;11.98;7.43;;;;;;;;;;5005108;28;20426;-65
2022/04/30 01:16:32;;;;;;;10.30;6.50;;;;;;;;;;5004887;28;20025;-65
2022/04/30 01:18:59;;;;;;;11.45;7.28;;;;;;;;;;5008947;28;20563;-66
2022/04/30 01:21:26;;;;;;;14.90;7.35;;;;;;;;;;5004844;28;20033;-65
2022/04/30 01:23:52;;;;;;;10.10;6.97;;;;;;;;;;5020020;28;20180;-64
2022/04/30 01:26:19;;;;;;;11.93;7.35;;;;;;;;;;5004467;28;20040;-64
2022/04/30 01:28:47;;;;;;;10.73;6.60;;;;;;;;;;5004495;28;20029;-64
2022/04/30 01:39:27;;;;;;;13.70;6.85;;;;;;;;;;5004159;28;20037;-64
2022/04/30 01:41:53;;;;;;;12.32;6.68;;;;;;;;;;5004362;28;20587;-65
2022/04/30 01:44:21;;;;;;;8.93;6.05;;;;;;;;;;5007584;28;20267;-65
2022/04/30 01:46:48;;;;;;;14.15;6.43;;;;;;;;;;5002230;28;20033;-65
2022/04/30 01:49:16;;;;;;;11.65;6.70;;;;;;;;;;5007008;28;20036;-70
2022/04/30 01:51:50;;;;;;;11.48;6.28;;;;;;;;;;5004324;28;20128;-65
2022/04/30 01:54:18;;;;;;;9.80;6.07;;;;;;;;;;5003752;28;20669;-69
2022/04/30 01:56:45;;;;;;;10.20;6.25;;;;;;;;;;5004534;28;20065;-64
2022/04/30 01:59:12;;;;;;;14.63;6.97;;;;;;;;;;5002114;28;20040;-64
2022/04/30 02:01:37;;;;;;;9.68;6.43;;;;;;;;;;5004382;28;20025;-64
2022/04/30 02:04:04;;;;;;;10.23;6.50;;;;;;;;;;5004706;28;20072;-69
2022/04/30 02:06:30;;;;;;;10.90;6.43;;;;;;;;;;5003163;28;20262;-64
2022/04/30 02:08:55;;;;;;;8.10;6.07;;;;;;;;;;5004835;28;20340;-64
2022/04/30 02:11:21;;;;;;;13.75;6.10;;;;;;;;;;5003645;28;20305;-66
2022/04/30 02:13:53;;;;;;;11.77;6.20;;;;;;;;;;5004247;28;20561;-64
2022/04/30 02:16:22;;;;;;;9.98;6.18;;;;;;;;;;5003356;28;20387;-64
2022/04/30 02:18:51;;;;;;;12.68;5.95;;;;;;;;;;5002062;28;20048;-69
2022/04/30 02:21:20;;;;;;;9.85;5.95;;;;;;;;;;5002904;28;20269;-63
2022/04/30 02:23:46;;;;;;;11.65;6.22;;;;;;;;;;5003706;28;20025;-64
2022/04/30 02:26:11;;;;;;;7.93;6.10;;;;;;;;;;5003612;28;20024;-65
2022/04/30 02:28:37;;;;;;;11.50;6.40;;;;;;;;;;5001955;28;20059;-64
2022/04/30 02:31:02;;;;;;;11.95;5.93;;;;;;;;;;5003401;28;20060;-64
2022/04/30 02:33:27;;;;;;;9.13;5.95;;;;;;;;;;5002943;28;20040;-64
2022/04/30 02:35:53;;;;;;;10.95;6.32;;;;;;;;;;5003699;28;20064;-64
2022/04/30 02:38:19;;;;;;;10.52;6.00;;;;;;;;;;5001508;28;20068;-65
2022/04/30 02:40:47;;;;;;;10.60;5.85;;;;;;;;;;4985284;28;20440;-70
2022/04/30 02:43:15;;;;;;;11.55;5.85;;;;;;;;;;4988784;28;20504;-64
2022/04/30 02:45:42;;;;;;;11.65;6.03;;;;;;;;;;5003398;28;20032;-64
2022/04/30 02:48:09;;;;;;;10.93;5.95;;;;;;;;;;5003137;28;20043;-65
2022/04/30 02:50:34;;;;;;;9.52;5.85;;;;;;;;;;5001273;28;20506;-64
2022/04/30 02:53:00;;;;;;;10.68;5.38;;;;;;;;;;5003344;28;20025;-65
2022/04/30 02:55:26;;;;;;;8.55;5.95;;;;;;;;;;5002782;28;20058;-64
2022/04/30 03:00:46;;;;;;;9.18;5.32;;;;;;;;;;5003411;28;20409;-63
2022/04/30 03:03:14;;;;;;;10.63;5.95;;;;;;;;;;5003408;28;20153;-69
2022/04/30 03:05:44;;;;;;;8.73;6.15;;;;;;;;;;5002331;28;20596;-64
2022/04/30 03:08:12;;;;;;;10.30;6.22;;;;;;;;;;5002884;28;20044;-64
2022/04/30 03:10:49;;;;;;;8.18;5.95;;;;;;;;;;5000204;28;20352;-65
2022/04/30 03:13:17;;;;;;;13.85;5.90;;;;;;;;;;5003703;28;20289;-65
2022/04/30 03:15:45;;;;;;;14.95;5.80;;;;;;;;;;5002570;28;20032;-69
2022/04/30 03:23:44;;;;;;;12.43;5.20;;;;;;;;;;5003031;28;20031;-70
2022/04/30 03:26:10;;;;;;;11.25;4.95;;;;;;;;;;5002873;28;20024;-65
2022/04/30 03:28:37;;;;;;;8.82;5.07;;;;;;;;;;4987722;28;20325;-64
2022/04/30 03:31:05;;;;;;;10.38;4.93;;;;;;;;;;5002593;28;20263;-69
2022/04/30 03:33:31;;;;;;;8.57;4.70;;;;;;;;;;5000465;28;20025;-65
2022/04/30 03:35:57;;;;;;;12.35;5.43;;;;;;;;;;5002559;28;20313;-65
2022/04/30 03:38:23;;;;;;;9.18;4.78;;;;;;;;;;5002391;28;20081;-70
2022/04/30 03:40:49;;;;;;;9.38;5.13;;;;;;;;;;5001902;28;20111;-65
2022/04/30 03:43:18;;;;;;;14.73;5.40;;;;;;;;;;5001889;28;20116;-64
2022/04/30 03:45:45;;;;;;;9.15;5.80;;;;;;;;;;5000825;28;20132;-69
2022/04/30 03:48:12;;;;;;;13.85;5.43;;;;;;;;;;5001942;28;20033;-69
2022/04/30 03:50:41;;;;;;;7.57;4.85;;;;;;;;;;5002332;28;20485;-69
2022/04/30 03:53:07;;;;;;;9.60;5.55;;;;;;;;;;5002076;28;20040;-70
2022/04/30 03:55:34;;;;;;;11.77;5.38;;;;;;;;;;5016899;28;21742;-64
2022/04/30 03:58:00;;;;;;;9.55;5.60;;;;;;;;;;5002282;28;20612;-63
2022/04/30 04:00:26;;;;;;;11.27;5.88;;;;;;;;;;5002007;28;20043;-64
2022/04/30 04:02:52;;;;;;;11.10;5.63;;;;;;;;;;5002061;28;20029;-65
2022/04/30 04:05:19;;;;;;;8.75;5.22;;;;;;;;;;4999783;28;20068;-65
2022/04/30 04:07:45;;;;;;;10.07;5.20;;;;;;;;;;5016933;28;20151;-65
2022/04/30 04:10:12;;;;;;;9.93;5.63;;;;;;;;;;5001527;28;20041;-64
2022/04/30 04:12:37;;;;;;;11.60;5.25;;;;;;;;;;5002111;28;20030;-64
2022/04/30 04:17:50;;;;;;;7.95;5.35;;;;;;;;;;5001566;28;20364;-65
2022/04/30 04:20:18;;;;;;;11.40;5.72;;;;;;;;;;5001588;28;20324;-65
2022/04/30 04:22:43;;;;;;;8.85;5.20;;;;;;;;;;4999862;28;20448;-65
2022/04/30 04:27:55;;;;;;;11.57;5.40;;;;;;;;;;5001455;28;20145;-65
2022/04/30 04:30:38;;;;;;;10.18;5.20;;;;;;;;;;5001722;28;20393;-65
2022/04/30 04:33:06;;;;;;;7.50;5.50;;;;;;;;;;4999429;28;20040;-65
2022/04/30 04:35:31;;;;;;;11.38;5.68;;;;;;;;;;5000988;28;20029;-64
2022/04/30 04:37:57;;;;;;;8.80;5.50;;;;;;;;;;5005060;28;20525;-64
2022/04/30 04:40:22;;;;;;;9.60;5.60;;;;;;;;;;5002302;28;20152;-64
2022/04/30 04:42:48;;;;;;;11.77;5.80;;;;;;;;;;5002097;28;20343;-64
2022/04/30 04:45:13;;;;;;;10.70;5.45;;;;;;;;;;5005714;28;20509;-64
2022/04/30 04:47:41;;;;;;;10.70;5.80;;;;;;;;;;5005016;28;20032;-63
2022/04/30 04:50:10;;;;;;;10.60;5.72;;;;;;;;;;5005432;28;20040;-65
2022/04/30 04:52:36;;;;;;;10.75;6.10;;;;;;;;;;5006059;28;20029;-65
2022/04/30 04:55:01;;;;;;;13.43;6.00;;;;;;;;;;5005794;28;20033;-65
2022/04/30 04:57:26;;;;;;;15.23;6.15;;;;;;;;;;5005948;28;20519;-65
2022/04/30 04:59:53;;;;;;;13.18;6.55;;;;;;;;;;4987293;28;20037;-65
2022/04/30 05:02:19;;;;;;;12.30;6.05;;;;;;;;;;5006200;28;20294;-65
2022/04/30 05:04:46;;;;;;;12.45;4.97;;;;;;;;;;5004840;28;20589;-65
2022/04/30 05:07:12;;;;;;;11.40;5.70;;;;;;;;;;5005312;28;20045;-65
2022/04/30 05:09:38;;;;;;;10.73;5.03;;;;;;;;;;5004937;28;20036;-64
2022/04/30 05:12:03;;;;;;;10.30;4.93;;;;;;;;;;5008847;28;20209;-65
2022/04/30 05:14:32;;;;;;;7.25;4.90;;;;;;;;;;5002592;28;20032;-65
2022/04/30 05:16:58;;;;;;;7.43;4.57;;;;;;;;;;5003455;28;20037;-65
2022/04/30 05:19:24;;;;;;;9.82;5.78;;;;;;;;;;5005092;28;20736;-65
2022/04/30 05:21:49;;;;;;;9.38;5.13;;;;;;;;;;5004561;28;20443;-65
2022/04/30 05:24:14;;;;;;;9.73;4.90;;;;;;;;;;5003287;28;20079;-65
2022/04/30 05:26:40;;;;;;;6.85;4.40;;;;;;;;;;5004873;28;20296;-65
2022/04/30 05:29:06;;;;;;;7.93;5.38;;;;;;;;;;5004258;28;20732;-65
2022/04/30 05:31:31;;;;;;;8.18;4.78;;;;;;;;;;5004443;28;20519;-65
2022/04/30 05:33:56;;;;;;;7.22;4.78;;;;;;;;;;5005105;28;20029;-65
2022/04/30 05:36:21;;;;;;;7.93;4.28;;;;;;;;;;5002790;28;20519;-65
2022/04/30 05:38:47;;;;;;;9.68;4.05;;;;;;;;;;5003135;28;20083;-65
2022/04/30 05:41:12;;;;;;;8.57;4.57;;;;;;;;;;5004814;28;20720;-65
2022/04/30 05:43:37;;;;;;;9.75;4.38;;;;;;;;;;5003675;28;20033;-65
2022/04/30 05:46:06;;;;;;;8.40;4.38;;;;;;;;;;5002928;28;20437;-65
2022/04/30 05:48:32;;;;;;;7.18;4.10;;;;;;;;;;5004333;28;20690;-65
2022/04/30 05:50:57;;;;;;;8.70;5.00;;;;;;;;;;5007908;28;20043;-65
2022/04/30 05:53:25;;;;;;;8.65;4.30;;;;;;;;;;5004463;28;20722;-66
2022/04/30 05:55:51;;;;;;;8.95;4.97;;;;;;;;;;4988876;28;20175;-66
2022/04/30 05:58:16;;;;;;;6.40;4.45;;;;;;;;;;5003594;28;20033;-63
2022/04/30 06:00:41;;;;;;;8.75;4.82;;;;;;;;;;5004861;28;20444;-65
2022/04/30 06:03:07;;;;;;;10.43;5.07;;;;;;;;;;5004535;28;20114;-64
2022/04/30 06:05:33;;;;;;;9.70;4.82;;;;;;;;;;5003575;28;20052;-65
2022/04/30 06:07:59;;;;;;;7.47;4.53;;;;;;;;;;5002699;28;20103;-65
2022/04/30 06:10:24;;;;;;;7.65;4.50;;;;;;;;;;5004535;28;20127;-62
2022/04/30 06:12:49;;;;;;;8.75;4.90;;;;;;;;;;5002167;28;20060;-63
2022/04/30 06:15:15;;;;;;;8.18;4.65;;;;;;;;;;5001757;28;20040;-63
2022/04/30 06:17:40;;;;;;;7.32;4.65;;;;;;;;;;5004180;28;20029;-64
2022/04/30 06:20:09;;;;;;;11.80;4.90;;;;;;;;;;5006702;28;20029;-64
2022/04/30 06:22:34;;;;;;;10.13;4.80;;;;;;;;;;5004598;28;20170;-64
2022/04/30 06:25:00;;;;;;;10.20;4.47;;;;;;;;;;5007010;28;20060;-63
2022/04/30 06:27:26;;;;;;;8.90;4.80;;;;;;;;;;5007247;28;20954;-63
2022/04/30 06:29:51;;;;;;;10.68;4.50;;;;;;;;;;5004224;28;20200;-63
2022/04/30 06:32:17;;;;;;;7.80;4.13;;;;;;;;;;5003917;28;20504;-63
2022/04/30 06:34:42;;;;;;;9.70;4.57;;;;;;;;;;5001506;28;20519;-62
2022/04/30 06:37:08;;;;;;;10.30;4.10;;;;;;;;;;5001205;28;20412;-63
2022/04/30 06:39:35;;;;;;;7.18;4.03;;;;;;;;;;5001636;28;20037;-63
2022/04/30 06:42:01;;;;;;;7.40;3.88;;;;;;;;;;4989816;28;20285;-63
2022/04/30 06:44:26;;;;;;;9.10;3.72;;;;;;;;;;5001647;28;20037;-63
2022/04/30 06:46:52;;;;;;;9.15;3.30;;;;;;;;;;5002898;28;20552;-63
2022/04/30 06:49:17;;;;;;;7.93;3.40;;;;;;;;;;5003543;28;20147;-62
2022/04/30 06:51:42;;;;;;;6.85;3.58;;;;;;;;;;5007542;28;20296;-62
2022/04/30 06:59:38;;;;;;;5.82;3.38;;;;;;;;;;5002314;28;20124;-63
2022/04/30 07:02:07;;;;;;;10.45;3.17;;;;;;;;;;5001780;28;20021;-63
2022/04/30 07:04:33;;;;;;;7.35;3.35;;;;;;;;;;4988101;28;20024;-62
2022/04/30 07:06:59;;;;;;;6.30;3.15;;;;;;;;;;5002010;28;20017;-62
2022/04/30 07:09:25;;;;;;;7.85;2.85;;;;;;;;;;5002572;28;20021;-63
2022/04/30 07:11:50;;;;;;;6.63;3.00;;;;;;;;;;5002652;28;20036;-62
2022/04/30 07:14:15;;;;;;;6.45;3.40;;;;;;;;;;5002275;28;20123;-63
2022/04/30 07:16:42;;;;;;;7.40;3.38;;;;;;;;;;5006504;28;20056;-62
2022/04/30 07:19:07;;;;;;;7.47;3.33;;;;;;;;;;5000484;28;20293;-62
2022/04/30 07:21:35;;;;;;;7.05;3.40;;;;;;;;;;5002538;28;20036;-62
2022/04/30 07:24:01;;;;;;;6.80;3.00;;;;;;;;;;5002681;28;20354;-63
2022/04/30 07:26:29;;;;;;;8.77;3.83;;;;;;;;;;5000549;28;20033;-62
2022/04/30 07:28:55;;;;;;;6.53;3.45;;;;;;;;;;5003285;28;20082;-63
2022/04/30 07:31:21;;;;;;;8.15;3.20;;;;;;;;;;5001967;28;20110;-61
2022/04/30 07:33:48;;;;;;;11.10;3.75;;;;;;;;;;5001484;28;20037;-61
2022/04/30 07:36:13;;;;;;;10.13;3.95;;;;;;;;;;5001783;28;20680;-61
2022/04/30 07:38:39;;;;;;;8.50;3.53;;;;;;;;;;5001509;28;20115;-62
2022/04/30 07:41:05;;;;;;;6.40;3.78;;;;;;;;;;5002021;28;20037;-63
2022/04/30 07:43:31;;;;;;;6.78;3.22;;;;;;;;;;5002642;28;20043;-62
2022/04/30 07:45:56;;;;;;;7.82;3.05;;;;;;;;;;5002314;28;20032;-63
2022/04/30 07:48:22;;;;;;;5.70;3.00;;;;;;;;;;5002568;28;20391;-62
2022/04/30 07:50:47;;;;;;;8.63;3.30;;;;;;;;;;4986939;28;20040;-62
2022/04/30 07:53:17;;;;;;;7.93;3.40;;;;;;;;;;5001724;28;20444;-62
2022/04/30 07:55:43;;;;;;;6.70;3.25;;;;;;;;;;4999939;28;20143;-62
2022/04/30 07:58:08;;;;;;;6.88;3.40;;;;;;;;;;5005434;28;20920;-62
2022/04/30 08:00:33;;;;;;;8.65;3.30;;;;;;;;;;5002017;28;20029;-62
2022/04/30 08:02:59;;;;;;;11.48;3.58;;;;;;;;;;5000150;28;20116;-62
2022/04/30 08:05:28;;;;;;;8.68;3.00;;;;;;;;;;4999413;28;20045;-64
2022/04/30 08:07:57;;;;;;;12.13;3.00;;;;;;;;;;5002381;28;20166;-63
2022/04/30 08:10:23;;;;;;;5.63;3.00;;;;;;;;;;5001519;28;20262;-62
2022/04/30 08:12:55;;;;;;;7.57;2.90;;;;;;;;;;5001689;28;20210;-62
2022/04/30 08:15:20;;;;;;;;;;;;;;;;;;5002193;28;20029;-62
2022/04/30 08:17:46;;;;;;;12.00;3.30;;;;;;;;;;5000903;28;20331;-62
2022/04/30 08:20:11;;;;;;;9.38;2.78;;;;;;;;;;4999057;28;20485;-63
2022/04/30 08:22:39;;;;;;;6.65;2.50;;;;;;;;;;5001523;28;20104;-63
2022/04/30 08:25:05;;;;;;;6.63;2.42;;;;;;;;;;5000870;28;20029;-62
2022/04/30 08:27:30;;;;;;;8.50;2.40;;;;;;;;;;5001846;28;20736;-62
2022/04/30 08:29:55;;;;;;;7.28;2.05;;;;;;;;;;4999383;28;20037;-61
2022/04/30 08:32:24;;;;;;;8.70;2.20;;;;;;;;;;4999738;28;20029;-62
2022/04/30 08:34:49;;;;;;;10.88;2.70;;;;;;;;;;5001561;28;22342;-62
2022/04/30 08:37:15;;;;;;;10.60;2.28;;;;;;;;;;4999399;28;20041;-62
2022/04/30 08:39:40;;;;;;;6.78;2.60;;;;;;;;;;5002081;28;20044;-62
2022/04/30 08:42:06;;;;;;;9.18;2.53;;;;;;;;;;5001673;28;20079;-62
2022/04/30 08:44:35;;;;;;;9.02;2.40;;;;;;;;;;5001385;28;20294;-62
2022/04/30 08:47:01;;;;;;;9.32;2.80;;;;;;;;;;5001317;28;20071;-63
2022/04/30 08:49:26;;;;;;;9.00;2.22;;;;;;;;;;4999774;28;20094;-62
2022/04/30 08:51:52;;;;;;;10.68;2.65;;;;;;;;;;5001339;28;20060;-62
2022/04/30 08:54:17;;;;;;;12.43;2.47;;;;;;;;;;5001736;28;20029;-61
2022/04/30 08:57:01;;;;;;;9.25;2.30;;;;;;;;;;5001528;28;20241;-61
2022/04/30 08:59:27;;;;;;;11.52;2.60;;;;;;;;;;4999365;28;20041;-62
2022/04/30 09:01:58;;;;;;;15.45;2.78;;;;;;;;;;5001435;28;20175;-62
2022/04/30 09:04:23;;;;;;;17.33;3.08;;;;;;;;;;5001131;28;20027;-63
2022/04/30 09:06:50;;;;;;;15.57;3.10;;;;;;;;;;4999391;28;20029;-63
2022/04/30 09:09:26;;;;;;;16.05;3.28;;;;;;;;;;5001492;28;20024;-63
2022/04/30 09:11:53;;;;;;;14.38;3.20;;;;;;;;;;5001236;28;20064;-62
2022/04/30 09:14:24;;;;;;;15.93;2.50;;;;;;;;;;5004345;28;20056;-62
2022/04/30 09:17:00;;;;;;;14.10;2.00;;;;;;;;;;5001877;28;20279;-62
2022/04/30 09:19:25;;;;;;;12.35;2.25;;;;;;;;;;5001053;28;20484;-62
2022/04/30 09:21:50;;;;;;;13.82;2.00;;;;;;;;;;5000682;28;20029;-63
2022/04/30 09:24:16;;;;;;;13.73;2.03;;;;;;;;;;5001070;28;20722;-63
2022/04/30 09:26:43;;;;;;;9.95;2.00;;;;;;;;;;5015716;28;20158;-63
2022/04/30 09:29:18;;;;;;;12.65;2.38;;;;;;;;;;4999679;28;21890;-63
2022/04/30 09:31:47;;;;;;;18.33;2.42;;;;;;;;;;5004393;28;20029;-62
2022/04/30 09:39:43;;;;;;;8.43;1.50;;;;;;;;;;5005084;28;20037;-62
2022/04/30 09:42:11;;;;;;;8.65;1.60;;;;;;;;;;5004467;28;20045;-62
2022/04/30 09:44:37;;;;;;;10.52;1.52;;;;;;;;;;5004333;28;22297;-64
2022/04/30 09:47:04;;;;;;;9.27;1.45;;;;;;;;;;5003938;28;20353;-63
2022/04/30 09:55:00;;;;;;;12.32;1.98;;;;;;;;;;5002663;28;20479;-62
2022/04/30 09:57:27;;;;;;;11.02;1.80;;;;;;;;;;5004068;28;20177;-63
2022/04/30 09:59:55;;;;;;;14.35;1.83;;;;;;;;;;5005987;28;20342;-62
2022/04/30 10:02:20;;;;;;;10.27;1.70;;;;;;;;;;5004341;28;20051;-62
2022/04/30 10:04:47;;;;;;;5.35;1.30;;;;;;;;;;5002138;28;20395;-61
2022/04/30 10:07:15;;;;;;;3.70;1.27;;;;;;;;;;5003884;28;20048;-62
2022/04/30 10:09:47;;;;;;;5.68;1.85;;;;;;;;;;5003754;28;22805;-62
2022/04/30 10:12:16;;;;;;;6.15;1.77;;;;;;;;;;5002502;28;20132;-61
2022/04/30 10:14:45;;;;;;;8.50;1.90;;;;;;;;;;5002371;28;20509;-61
2022/04/30 10:17:12;;;;;;;7.38;1.80;;;;;;;;;;5004316;28;20026;-61
2022/04/30 10:19:38;;;;;;;7.63;2.13;;;;;;;;;;4988437;28;20044;-61
2022/04/30 10:22:12;;;;;;;7.85;1.85;;;;;;;;;;5004196;28;20156;-62
2022/04/30 10:24:47;;;;;;;10.10;1.88;;;;;;;;;;5003832;28;20017;-62
2022/04/30 10:27:13;;;;;;;7.15;2.22;;;;;;;;;;5003538;28;20025;-62
2022/04/30 10:29:50;;;;;;;7.65;2.00;;;;;;;;;;5001354;28;20444;-62
2022/04/30 10:32:23;;;;;;;6.75;2.20;;;;;;;;;;5003792;28;20299;-61
2022/04/30 10:34:51;;;;;;;7.15;2.00;;;;;;;;;;5002673;28;20028;-62
2022/04/30 10:37:30;;;;;;;8.32;2.17;;;;;;;;;;5003433;28;20684;-61
2022/04/30 10:39:57;;;;;;;8.38;1.92;;;;;;;;;;5003683;28;20576;-61
2022/04/30 10:42:29;;;;;;;6.93;2.08;;;;;;;;;;5001012;28;20747;-61
2022/04/30 10:44:55;;;;;;;7.10;1.70;;;;;;;;;;5001573;28;20541;-61
2022/04/30 10:47:20;;;;;;;10.32;1.95;;;;;;;;;;5001942;28;20033;-62
2022/04/30 10:49:46;;;;;;;7.65;1.85;;;;;;;;;;5001418;28;21880;-62
2022/04/30 10:52:21;;;;;;;6.85;1.80;;;;;;;;;;5006663;28;20186;-62
2022/04/30 10:54:47;;;;;;;10.70;2.20;;;;;;;;;;5003540;28;20239;-63
2022/04/30 10:57:13;;;;;;;7.38;2.30;;;;;;;;;;5003029;28;20304;-62
2022/04/30 10:59:41;;;;;;;6.05;1.95;;;;;;;;;;5003235;28;20040;-63
2022/04/30 11:02:09;;;;;;;4.10;1.55;;;;;;;;;;5003163;28;20182;-63
2022/04/30 11:04:35;;;;;;;4.30;1.63;;;;;;;;;;5002352;28;20030;-62
2022/04/30 11:07:00;;;;;;;6.13;1.70;;;;;;;;;;5002845;28;20109;-62
2022/04/30 11:09:26;;;;;;;4.60;1.90;;;;;;;;;;5003198;28;20286;-61
2022/04/30 11:11:52;;;;;;;4.47;1.95;;;;;;;;;;5003522;28;20857;-60
2022/04/30 11:14:19;;;;;;;5.22;2.15;;;;;;;;;;5002879;28;20657;-62
2022/04/30 11:16:49;;;;;;;4.40;1.70;;;;;;;;;;5003090;28;20480;-61
2022/04/30 11:19:23;;;;;;;5.15;2.03;;;;;;;;;;5001871;28;20442;-63
2022/04/30 11:21:52;;;;;;;4.72;2.10;;;;;;;;;;5001355;28;20013;-61
2022/04/30 11:24:28;;;;;;;7.40;2.00;;;;;;;;;;5002989;28;20553;-62
2022/04/30 11:26:56;;;;;;;8.30;2.05;;;;;;;;;;5000716;28;20052;-63
2022/04/30 11:29:22;;;;;;;4.20;1.90;;;;;;;;;;5002588;28;20525;-61
2022/04/30 11:31:49;;;;;;;5.78;1.90;;;;;;;;;;5005769;28;20283;-62
2022/04/30 11:34:18;;;;;;;5.70;2.17;;;;;;;;;;5002239;28;20232;-61
2022/04/30 11:36:44;;;;;;;8.40;2.00;;;;;;;;;;5002333;28;20329;-62
2022/04/30 11:39:10;;;;;;;5.45;1.90;;;;;;;;;;5001943;28;20044;-62
2022/04/30 11:41:39;;;;;;;5.53;2.00;;;;;;;;;;5000707;28;20366;-62
2022/04/30 11:44:05;;;;;;;6.18;1.85;;;;;;;;;;5002532;28;20112;-63
2022/04/30 11:46:31;;;;;;;4.75;1.92;;;;;;;;;;5001422;28;20035;-62
2022/04/30 11:48:56;;;;;;;4.97;1.73;;;;;;;;;;5002560;28;20313;-62
2022/04/30 11:51:22;;;;;;;5.05;1.88;;;;;;;;;;5001244;28;20041;-61
2022/04/30 11:53:47;;;;;;;10.00;2.17;;;;;;;;;;5002083;28;20033;-62
2022/04/30 11:56:15;;;;;;;7.50;2.40;;;;;;;;;;5001990;28;20060;-61
2022/04/30 11:58:42;;;;;;;10.73;2.47;;;;;;;;;;5002600;28;20358;-62
2022/04/30 12:01:18;;;;;;;6.93;2.28;;;;;;;;;;5000751;28;20124;-62
2022/04/30 12:03:46;;;;;;;5.45;2.20;;;;;;;;;;5001983;28;20041;-63
2022/04/30 12:06:11;;;;;;;9.30;2.40;;;;;;;;;;5003228;28;20114;-63
2022/04/30 12:08:36;;;;;;;5.15;2.35;;;;;;;;;;5002388;28;20265;-63
2022/04/30 12:11:02;;;;;;;5.40;2.00;;;;;;;;;;5001886;28;20417;-63
2022/04/30 12:13:28;;;;;;;4.68;1.92;;;;;;;;;;5001565;28;20215;-62
2022/04/30 12:16:04;;;;;;;6.00;2.30;;;;;;;;;;5001968;28;20025;-62
2022/04/30 12:26:53;;;;;;;8.02;2.00;;;;;;;;;;5002411;28;20464;-62
2022/04/30 12:29:19;;;;;;;3.88;1.85;;;;;;;;;;4999730;28;20400;-62
2022/04/30 12:31:51;;;;;;;6.07;1.90;;;;;;;;;;4999815;28;20021;-62
2022/04/30 12:34:27;;;;;;;4.55;1.80;;;;;;;;;;5001045;28;20028;-61
2022/04/30 12:36:53;;;;;;;4.78;2.10;;;;;;;;;;5015916;28;20262;-61
2022/04/30 12:39:23;;;;;;;7.00;2.17;;;;;;;;;;4999802;28;20036;-63
2022/04/30 12:41:49;;;;;;;5.75;2.22;;;;;;;;;;5002141;28;20036;-62
2022/04/30 12:44:15;;;;;;;4.20;2.22;;;;;;;;;;5000945;28;20032;-62
2022/04/30 12:46:44;;;;;;;7.47;2.90;;;;;;;;;;5001473;28;20020;-62
2022/04/30 12:49:11;;;;;;;5.35;2.40;;;;;;;;;;5001428;28;20053;-62
2022/04/30 12:51:36;;;;;;;6.80;2.60;;;;;;;;;;4999761;28;20034;-61
2022/04/30 12:54:02;;;;;;;9.95;2.70;;;;;;;;;;5001562;28;20284;-62
2022/04/30 12:56:27;;;;;;;6.72;2.40;;;;;;;;;;5000992;28;20256;-62
2022/04/30 12:58:53;;;;;;;4.10;2.38;;;;;;;;;;4999865;28;20332;-61
2022/04/30 13:01:20;;;;;;;8.05;2.63;;;;;;;;;;5001375;28;20305;-61
2022/04/30 13:03:46;;;;;;;4.63;2.80;;;;;;;;;;5000385;28;20257;-61
2022/04/30 13:06:13;;;;;;;7.63;2.58;;;;;;;;;;4987302;28;20417;-62
2022/04/30 13:14:07;;;;;;;6.05;2.83;;;;;;;;;;5004927;28;20116;-63
2022/04/30 13:16:32;;;;;;;4.50;2.67;;;;;;;;;;5003500;28;20344;-62
2022/04/30 13:18:58;;;;;;;6.70;2.50;;;;;;;;;;5002738;28;20031;-62
2022/04/30 13:21:24;;;;;;;9.35;3.10;;;;;;;;;;5005727;28;20022;-63
2022/04/30 13:23:49;;;;;;;9.27;3.17;;;;;;;;;;5004490;28;20162;-64
2022/04/30 13:26:17;;;;;;;5.22;3.20;;;;;;;;;;5004875;28;20253;-62
2022/04/30 13:28:42;;;;;;;6.38;3.15;;;;;;;;;;5004362;28;20250;-62
2022/04/30 13:31:08;;;;;;;6.13;3.30;;;;;;;;;;5005025;28;20268;-62
2022/04/30 13:33:34;;;;;;;5.20;2.92;;;;;;;;;;5002185;28;20029;-62
2022/04/30 13:35:59;;;;;;;8.80;2.88;;;;;;;;;;5004133;28;20040;-62
2022/04/30 13:38:25;;;;;;;6.68;3.08;;;;;;;;;;5004029;28;20131;-62
2022/04/30 13:40:50;;;;;;;6.72;2.90;;;;;;;;;;5004181;28;20060;-62
2022/04/30 13:43:16;;;;;;;4.60;2.85;;;;;;;;;;5004370;28;20259;-61
2022/04/30 13:45:44;;;;;;;9.57;3.33;;;;;;;;;;5003932;28;20056;-62
2022/04/30 13:48:10;;;;;;;7.40;3.10;;;;;;;;;;5004908;28;20075;-62
2022/04/30 13:50:35;;;;;;;7.75;3.22;;;;;;;;;;5007546;28;20506;-62
2022/04/30 13:53:01;;;;;;;8.07;3.90;;;;;;;;;;5002780;28;20095;-62
2022/04/30 13:55:27;;;;;;;9.77;4.07;;;;;;;;;;5003742;28;20419;-63
2022/04/30 13:57:53;;;;;;;8.20;3.78;;;;;;;;;;5001796;28;20039;-62
2022/04/30 14:00:21;;;;;;;8.50;3.63;;;;;;;;;;5005102;28;20029;-63
2022/04/30 14:02:47;;;;;;;8.20;3.97;;;;;;;;;;4985738;28;20117;-63
2022/04/30 14:05:12;;;;;;;8.38;4.00;;;;;;;;;;5004245;28;20231;-62
2022/04/30 14:07:38;;;;;;;10.90;4.13;;;;;;;;;;5004020;28;20037;-62
2022/04/30 14:10:06;;;;;;;5.32;3.50;;;;;;;;;;5003621;28;20048;-62
2022/04/30 14:12:31;;;;;;;7.97;3.30;;;;;;;;;;5003801;28;20439;-63
2022/04/30 14:14:57;;;;;;;10.68;3.88;;;;;;;;;;5004207;28;20040;-60
2022/04/30 14:20:13;;;;;;;7.15;3.00;;;;;;;;;;5003614;28;20033;-63
2022/04/30 14:22:41;;;;;;;9.52;3.67;;;;;;;;;;5003868;28;20563;-61
2022/04/30 14:25:09;;;;;;;8.60;3.22;;;;;;;;;;5003880;28;20047;-63
2022/04/30 14:27:37;;;;;;;7.45;3.40;;;;;;;;;;5001879;28;20084;-66
2022/04/30 14:30:03;;;;;;;4.60;3.42;;;;;;;;;;5003626;28;20025;-63
2022/04/30 14:32:29;;;;;;;8.23;3.20;;;;;;;;;;5003507;28;20026;-63
2022/04/30 14:34:54;;;;;;;6.78;3.22;;;;;;;;;;5002787;28;20040;-62
2022/04/30 14:37:20;;;;;;;9.57;3.60;;;;;;;;;;5003897;28;20633;-63
2022/04/30 14:39:45;;;;;;;7.25;3.50;;;;;;;;;;5003987;28;20037;-63
2022/04/30 14:42:14;;;;;;;10.23;3.70;;;;;;;;;;5001975;28;20441;-63
2022/04/30 14:44:42;;;;;;;9.70;3.75;;;;;;;;;;5001371;28;20036;-64
2022/04/30 14:47:08;;;;;;;4.88;3.42;;;;;;;;;;4988569;28;20048;-62
2022/04/30 14:49:34;;;;;;;5.95;3.40;;;;;;;;;;5003056;28;20400;-62
2022/04/30 14:52:01;;;;;;;7.43;4.05;;;;;;;;;;5003897;28;20273;-63
2022/04/30 14:54:27;;;;;;;8.40;4.03;;;;;;;;;;5002603;28;20037;-63
2022/04/30 14:56:52;;;;;;;6.82;4.10;;;;;;;;;;5002952;28;20033;-63
2022/04/30 14:59:18;;;;;;;8.40;3.65;;;;;;;;;;5003261;28;20044;-63
2022/04/30 15:01:45;;;;;;;10.32;3.92;;;;;;;;;;5002997;28;20607;-62
2022/04/30 15:04:10;;;;;;;9.13;3.67;;;;;;;;;;5001162;28;20281;-63
2022/04/30 15:06:36;;;;;;;7.93;4.00;;;;;;;;;;5002536;28;20021;-63
2022/04/30 15:09:01;;;;;;;6.82;4.05;;;;;;;;;;5003170;28;20044;-62
2022/04/30 15:11:27;;;;;;;7.35;3.90;;;;;;;;;;5001395;28;20024;-63
2022/04/30 15:13:53;;;;;;;7.43;3.90;;;;;;;;;;5001530;28;20860;-63
2022/04/30 15:16:18;;;;;;;10.13;3.72;;;;;;;;;;5002948;28;20227;-62
2022/04/30 15:18:44;;;;;;;6.85;3.67;;;;;;;;;;5001934;28;20385;-62
2022/04/30 15:21:12;;;;;;;8.88;4.00;;;;;;;;;;5002609;28;20035;-63
2022/04/30 15:23:37;;;;;;;7.70;3.15;;;;;;;;;;5002289;28;20182;-63
2022/04/30 15:26:03;;;;;;;6.88;3.10;;;;;;;;;;5001100;28;20255;-62
2022/04/30 15:28:29;;;;;;;5.22;2.85;;;;;;;;;;4999508;28;20110;-62
2022/04/30 15:30:54;;;;;;;8.18;2.97;;;;;;;;;;5002412;28;20304;-63